sensor_id;sensor_type;location;lat;lon;timestamp;P1;durP1;ratioP1;P2;durP2;ratioP2
58665;SDS011;44436;52.872;6.520;2022-08-21T00:00:21;6.70;;;3.35;;
58665;SDS011;44436;52.872;6.520;2022-08-21T00:02:56;6.88;;;3.50;;
58665;SDS011;44436;52.872;6.520;2022-08-21T00:05:26;8.35;;;3.92;;
58665;SDS011;44436;52.872;6.520;2022-08-21T00:07:53;8.52;;;3.35;;
58665;SDS011;44436;52.872;6.520;2022-08-21T00:10:20;13.80;;;4.05;;
58665;SDS011;44436;52.872;6.520;2022-08-21T00:12:46;8.30;;;4.55;;
58665;SDS011;44436;52.872;6.520;2022-08-21T00:15:13;9.48;;;4.00;;
58665;SDS011;44436;52.872;6.520;2022-08-21T00:17:42;8.95;;;3.47;;
58665;SDS011;44436;52.872;6.520;2022-08-21T00:20:08;7.63;;;3.72;;
58665;SDS011;44436;52.872;6.520;2022-08-21T00:22:36;8.10;;;4.15;;
58665;SDS011;44436;52.872;6.520;2022-08-21T00:25:03;10.55;;;4.88;;
58665;SDS011;44436;52.872;6.520;2022-08-21T00:27:31;10.73;;;4.88;;
58665;SDS011;44436;52.872;6.520;2022-08-21T00:29:57;8.98;;;4.57;;
58665;SDS011;44436;52.872;6.520;2022-08-21T00:32:23;12.13;;;4.70;;
58665;SDS011;44436;52.872;6.520;2022-08-21T00:34:50;7.97;;;5.03;;
58665;SDS011;44436;52.872;6.520;2022-08-21T00:37:17;11.60;;;4.53;;
58665;SDS011;44436;52.872;6.520;2022-08-21T00:39:43;10.98;;;4.90;;
58665;SDS011;44436;52.872;6.520;2022-08-21T00:42:09;9.75;;;4.50;;
58665;SDS011;44436;52.872;6.520;2022-08-21T00:44:40;11.23;;;5.40;;
58665;SDS011;44436;52.872;6.520;2022-08-21T00:47:10;9.18;;;5.07;;
58665;SDS011;44436;52.872;6.520;2022-08-21T00:49:36;11.05;;;4.60;;
58665;SDS011;44436;52.872;6.520;2022-08-21T00:52:03;28.08;;;5.32;;
58665;SDS011;44436;52.872;6.520;2022-08-21T00:54:32;11.57;;;5.05;;
58665;SDS011;44436;52.872;6.520;2022-08-21T00:57:03;8.63;;;4.55;;
58665;SDS011;44436;52.872;6.520;2022-08-21T00:59:33;12.73;;;4.57;;
58665;SDS011;44436;52.872;6.520;2022-08-21T01:02:00;8.25;;;4.55;;
58665;SDS011;44436;52.872;6.520;2022-08-21T01:04:26;11.60;;;4.15;;
58665;SDS011;44436;52.872;6.520;2022-08-21T01:06:52;8.82;;;4.38;;
58665;SDS011;44436;52.872;6.520;2022-08-21T01:09:20;10.85;;;3.70;;
58665;SDS011;44436;52.872;6.520;2022-08-21T01:11:45;9.90;;;4.32;;
58665;SDS011;44436;52.872;6.520;2022-08-21T01:14:12;9.18;;;4.05;;
58665;SDS011;44436;52.872;6.520;2022-08-21T01:16:39;5.68;;;3.88;;
58665;SDS011;44436;52.872;6.520;2022-08-21T01:19:07;8.35;;;4.05;;
58665;SDS011;44436;52.872;6.520;2022-08-21T01:21:33;10.25;;;4.47;;
58665;SDS011;44436;52.872;6.520;2022-08-21T01:23:59;11.15;;;4.18;;
58665;SDS011;44436;52.872;6.520;2022-08-21T01:26:26;9.00;;;3.80;;
58665;SDS011;44436;52.872;6.520;2022-08-21T01:28:56;9.52;;;3.88;;
58665;SDS011;44436;52.872;6.520;2022-08-21T01:31:26;7.38;;;4.28;;
58665;SDS011;44436;52.872;6.520;2022-08-21T01:33:53;8.52;;;4.00;;
58665;SDS011;44436;52.872;6.520;2022-08-21T01:36:20;10.73;;;4.40;;
58665;SDS011;44436;52.872;6.520;2022-08-21T01:38:47;8.43;;;3.95;;
58665;SDS011;44436;52.872;6.520;2022-08-21T01:41:13;11.20;;;3.70;;
58665;SDS011;44436;52.872;6.520;2022-08-21T01:43:39;7.25;;;3.78;;
58665;SDS011;44436;52.872;6.520;2022-08-21T01:46:06;9.00;;;3.95;;
58665;SDS011;44436;52.872;6.520;2022-08-21T01:48:32;8.60;;;3.67;;
58665;SDS011;44436;52.872;6.520;2022-08-21T01:50:58;6.97;;;3.85;;
58665;SDS011;44436;52.872;6.520;2022-08-21T01:53:24;6.80;;;3.85;;
58665;SDS011;44436;52.872;6.520;2022-08-21T01:55:49;7.63;;;3.67;;
58665;SDS011;44436;52.872;6.520;2022-08-21T01:58:15;7.85;;;3.75;;
58665;SDS011;44436;52.872;6.520;2022-08-21T02:00:41;7.80;;;4.00;;
58665;SDS011;44436;52.872;6.520;2022-08-21T02:03:07;11.68;;;4.20;;
58665;SDS011;44436;52.872;6.520;2022-08-21T02:05:32;9.43;;;3.92;;
58665;SDS011;44436;52.872;6.520;2022-08-21T02:07:58;6.57;;;3.78;;
58665;SDS011;44436;52.872;6.520;2022-08-21T02:10:25;7.88;;;4.10;;
58665;SDS011;44436;52.872;6.520;2022-08-21T02:12:53;9.55;;;3.80;;
58665;SDS011;44436;52.872;6.520;2022-08-21T02:15:20;7.93;;;3.70;;
58665;SDS011;44436;52.872;6.520;2022-08-21T02:17:50;6.50;;;3.80;;
58665;SDS011;44436;52.872;6.520;2022-08-21T02:20:20;6.78;;;4.10;;
58665;SDS011;44436;52.872;6.520;2022-08-21T02:22:49;5.95;;;4.07;;
58665;SDS011;44436;52.872;6.520;2022-08-21T02:25:15;9.90;;;4.63;;
58665;SDS011;44436;52.872;6.520;2022-08-21T02:27:43;4.68;;;4.15;;
58665;SDS011;44436;52.872;6.520;2022-08-21T02:30:11;6.97;;;4.30;;
58665;SDS011;44436;52.872;6.520;2022-08-21T02:32:39;8.73;;;4.25;;
58665;SDS011;44436;52.872;6.520;2022-08-21T02:35:05;7.30;;;4.40;;
58665;SDS011;44436;52.872;6.520;2022-08-21T02:37:32;7.32;;;4.30;;
58665;SDS011;44436;52.872;6.520;2022-08-21T02:39:59;8.25;;;4.95;;
58665;SDS011;44436;52.872;6.520;2022-08-21T02:42:26;6.20;;;4.22;;
58665;SDS011;44436;52.872;6.520;2022-08-21T02:44:51;10.82;;;4.65;;
58665;SDS011;44436;52.872;6.520;2022-08-21T02:47:17;10.55;;;4.65;;
58665;SDS011;44436;52.872;6.520;2022-08-21T02:49:43;9.55;;;5.20;;
58665;SDS011;44436;52.872;6.520;2022-08-21T02:52:08;10.35;;;5.22;;
58665;SDS011;44436;52.872;6.520;2022-08-21T02:54:34;10.88;;;5.18;;
58665;SDS011;44436;52.872;6.520;2022-08-21T02:57:00;10.50;;;5.10;;
58665;SDS011;44436;52.872;6.520;2022-08-21T02:59:25;11.02;;;4.82;;
58665;SDS011;44436;52.872;6.520;2022-08-21T03:01:51;12.68;;;5.47;;
58665;SDS011;44436;52.872;6.520;2022-08-21T03:04:17;10.57;;;5.28;;
58665;SDS011;44436;52.872;6.520;2022-08-21T03:06:43;8.45;;;5.55;;
58665;SDS011;44436;52.872;6.520;2022-08-21T03:09:09;10.80;;;5.28;;
58665;SDS011;44436;52.872;6.520;2022-08-21T03:11:34;10.88;;;4.97;;
58665;SDS011;44436;52.872;6.520;2022-08-21T03:14:01;8.13;;;4.30;;
58665;SDS011;44436;52.872;6.520;2022-08-21T03:16:29;9.13;;;4.90;;
58665;SDS011;44436;52.872;6.520;2022-08-21T03:18:55;9.85;;;5.05;;
58665;SDS011;44436;52.872;6.520;2022-08-21T03:21:20;8.65;;;4.78;;
58665;SDS011;44436;52.872;6.520;2022-08-21T03:23:46;9.77;;;4.65;;
58665;SDS011;44436;52.872;6.520;2022-08-21T03:26:12;10.90;;;5.47;;
58665;SDS011;44436;52.872;6.520;2022-08-21T03:28:38;7.93;;;5.20;;
58665;SDS011;44436;52.872;6.520;2022-08-21T03:31:04;8.82;;;5.97;;
58665;SDS011;44436;52.872;6.520;2022-08-21T03:33:30;9.63;;;5.57;;
58665;SDS011;44436;52.872;6.520;2022-08-21T03:36:03;13.63;;;6.25;;
58665;SDS011;44436;52.872;6.520;2022-08-21T03:38:31;9.82;;;6.50;;
58665;SDS011;44436;52.872;6.520;2022-08-21T03:40:59;14.57;;;6.55;;
58665;SDS011;44436;52.872;6.520;2022-08-21T03:43:25;13.82;;;7.20;;
58665;SDS011;44436;52.872;6.520;2022-08-21T03:45:52;14.15;;;7.15;;
58665;SDS011;44436;52.872;6.520;2022-08-21T03:48:18;12.95;;;6.72;;
58665;SDS011;44436;52.872;6.520;2022-08-21T03:50:44;12.27;;;7.05;;
58665;SDS011;44436;52.872;6.520;2022-08-21T03:53:12;15.10;;;7.13;;
58665;SDS011;44436;52.872;6.520;2022-08-21T03:55:39;10.77;;;6.47;;
58665;SDS011;44436;52.872;6.520;2022-08-21T03:58:05;17.80;;;7.20;;
58665;SDS011;44436;52.872;6.520;2022-08-21T04:00:31;14.88;;;6.80;;
58665;SDS011;44436;52.872;6.520;2022-08-21T04:02:57;15.32;;;7.45;;
58665;SDS011;44436;52.872;6.520;2022-08-21T04:05:23;10.98;;;6.30;;
58665;SDS011;44436;52.872;6.520;2022-08-21T04:07:58;14.40;;;7.07;;
58665;SDS011;44436;52.872;6.520;2022-08-21T04:10:26;10.20;;;6.15;;
58665;SDS011;44436;52.872;6.520;2022-08-21T04:12:53;12.65;;;6.60;;
58665;SDS011;44436;52.872;6.520;2022-08-21T04:15:20;12.63;;;7.07;;
58665;SDS011;44436;52.872;6.520;2022-08-21T04:17:46;12.63;;;7.05;;
58665;SDS011;44436;52.872;6.520;2022-08-21T04:20:13;10.88;;;7.05;;
58665;SDS011;44436;52.872;6.520;2022-08-21T04:22:39;12.57;;;6.82;;
58665;SDS011;44436;52.872;6.520;2022-08-21T04:25:05;12.60;;;6.70;;
58665;SDS011;44436;52.872;6.520;2022-08-21T04:27:32;12.23;;;7.03;;
58665;SDS011;44436;52.872;6.520;2022-08-21T04:29:58;16.30;;;7.53;;
58665;SDS011;44436;52.872;6.520;2022-08-21T04:32:25;14.63;;;7.22;;
58665;SDS011;44436;52.872;6.520;2022-08-21T04:34:59;13.25;;;7.25;;
58665;SDS011;44436;52.872;6.520;2022-08-21T04:37:26;12.55;;;7.10;;
58665;SDS011;44436;52.872;6.520;2022-08-21T04:39:52;12.73;;;6.75;;
58665;SDS011;44436;52.872;6.520;2022-08-21T04:42:18;13.45;;;7.57;;
58665;SDS011;44436;52.872;6.520;2022-08-21T04:44:43;16.02;;;6.93;;
58665;SDS011;44436;52.872;6.520;2022-08-21T04:47:09;12.43;;;6.88;;
58665;SDS011;44436;52.872;6.520;2022-08-21T04:49:35;13.20;;;7.03;;
58665;SDS011;44436;52.872;6.520;2022-08-21T04:52:01;11.77;;;6.82;;
58665;SDS011;44436;52.872;6.520;2022-08-21T04:54:27;17.40;;;7.45;;
58665;SDS011;44436;52.872;6.520;2022-08-21T04:56:54;11.10;;;6.40;;
58665;SDS011;44436;52.872;6.520;2022-08-21T04:59:28;11.30;;;7.15;;
58665;SDS011;44436;52.872;6.520;2022-08-21T05:02:10;15.32;;;7.05;;
58665;SDS011;44436;52.872;6.520;2022-08-21T05:04:39;12.45;;;6.47;;
58665;SDS011;44436;52.872;6.520;2022-08-21T05:07:11;13.85;;;6.57;;
58665;SDS011;44436;52.872;6.520;2022-08-21T05:09:40;11.25;;;6.47;;
58665;SDS011;44436;52.872;6.520;2022-08-21T05:12:06;12.75;;;6.32;;
58665;SDS011;44436;52.872;6.520;2022-08-21T05:14:32;12.07;;;6.22;;
58665;SDS011;44436;52.872;6.520;2022-08-21T05:16:58;12.95;;;6.72;;
58665;SDS011;44436;52.872;6.520;2022-08-21T05:19:24;12.60;;;7.30;;
58665;SDS011;44436;52.872;6.520;2022-08-21T05:21:50;8.65;;;6.05;;
58665;SDS011;44436;52.872;6.520;2022-08-21T05:24:16;13.85;;;6.60;;
58665;SDS011;44436;52.872;6.520;2022-08-21T05:26:43;12.10;;;6.40;;
58665;SDS011;44436;52.872;6.520;2022-08-21T05:29:09;13.07;;;6.78;;
58665;SDS011;44436;52.872;6.520;2022-08-21T05:31:35;12.48;;;6.55;;
58665;SDS011;44436;52.872;6.520;2022-08-21T05:34:02;13.50;;;6.63;;
58665;SDS011;44436;52.872;6.520;2022-08-21T05:36:27;13.35;;;6.57;;
58665;SDS011;44436;52.872;6.520;2022-08-21T05:38:53;11.85;;;6.25;;
58665;SDS011;44436;52.872;6.520;2022-08-21T05:41:19;13.07;;;6.68;;
58665;SDS011;44436;52.872;6.520;2022-08-21T05:43:45;15.55;;;6.72;;
58665;SDS011;44436;52.872;6.520;2022-08-21T05:46:10;16.65;;;7.25;;
58665;SDS011;44436;52.872;6.520;2022-08-21T05:48:36;12.75;;;6.50;;
58665;SDS011;44436;52.872;6.520;2022-08-21T05:51:06;12.02;;;6.22;;
58665;SDS011;44436;52.872;6.520;2022-08-21T05:53:34;14.30;;;6.20;;
58665;SDS011;44436;52.872;6.520;2022-08-21T05:56:00;9.10;;;5.88;;
58665;SDS011;44436;52.872;6.520;2022-08-21T05:58:28;11.32;;;6.28;;
58665;SDS011;44436;52.872;6.520;2022-08-21T06:00:55;9.70;;;6.72;;
58665;SDS011;44436;52.872;6.520;2022-08-21T06:03:25;12.73;;;6.10;;
58665;SDS011;44436;52.872;6.520;2022-08-21T06:05:52;12.05;;;6.30;;
58665;SDS011;44436;52.872;6.520;2022-08-21T06:08:19;12.20;;;5.90;;
58665;SDS011;44436;52.872;6.520;2022-08-21T06:10:45;13.27;;;6.15;;
58665;SDS011;44436;52.872;6.520;2022-08-21T06:13:12;11.10;;;6.28;;
58665;SDS011;44436;52.872;6.520;2022-08-21T06:15:39;13.75;;;5.63;;
58665;SDS011;44436;52.872;6.520;2022-08-21T06:18:05;19.00;;;6.75;;
58665;SDS011;44436;52.872;6.520;2022-08-21T06:20:30;10.80;;;6.03;;
58665;SDS011;44436;52.872;6.520;2022-08-21T06:22:57;15.27;;;6.00;;
58665;SDS011;44436;52.872;6.520;2022-08-21T06:25:23;17.65;;;6.05;;
58665;SDS011;44436;52.872;6.520;2022-08-21T06:27:49;17.42;;;5.95;;
58665;SDS011;44436;52.872;6.520;2022-08-21T06:30:15;20.00;;;6.40;;
58665;SDS011;44436;52.872;6.520;2022-08-21T06:32:42;11.60;;;5.82;;
58665;SDS011;44436;52.872;6.520;2022-08-21T06:35:08;14.20;;;5.68;;
58665;SDS011;44436;52.872;6.520;2022-08-21T06:37:34;10.73;;;4.93;;
58665;SDS011;44436;52.872;6.520;2022-08-21T06:40:00;15.25;;;4.60;;
58665;SDS011;44436;52.872;6.520;2022-08-21T06:42:26;12.70;;;4.65;;
58665;SDS011;44436;52.872;6.520;2022-08-21T06:44:53;12.20;;;5.22;;
58665;SDS011;44436;52.872;6.520;2022-08-21T06:47:19;12.65;;;4.93;;
58665;SDS011;44436;52.872;6.520;2022-08-21T06:49:44;11.55;;;4.75;;
58665;SDS011;44436;52.872;6.520;2022-08-21T06:52:11;14.73;;;4.90;;
58665;SDS011;44436;52.872;6.520;2022-08-21T06:54:37;11.13;;;5.15;;
58665;SDS011;44436;52.872;6.520;2022-08-21T06:57:04;12.60;;;5.13;;
58665;SDS011;44436;52.872;6.520;2022-08-21T06:59:30;10.90;;;4.50;;
58665;SDS011;44436;52.872;6.520;2022-08-21T07:01:57;11.90;;;4.32;;
58665;SDS011;44436;52.872;6.520;2022-08-21T07:04:23;16.73;;;4.82;;
58665;SDS011;44436;52.872;6.520;2022-08-21T07:06:49;14.82;;;3.88;;
58665;SDS011;44436;52.872;6.520;2022-08-21T07:09:14;16.45;;;4.22;;
58665;SDS011;44436;52.872;6.520;2022-08-21T07:11:40;13.00;;;3.90;;
58665;SDS011;44436;52.872;6.520;2022-08-21T07:14:06;12.55;;;3.70;;
58665;SDS011;44436;52.872;6.520;2022-08-21T07:16:32;8.55;;;3.17;;
58665;SDS011;44436;52.872;6.520;2022-08-21T07:18:57;13.32;;;3.78;;
58665;SDS011;44436;52.872;6.520;2022-08-21T07:21:23;17.70;;;3.90;;
58665;SDS011;44436;52.872;6.520;2022-08-21T07:23:49;10.95;;;3.80;;
58665;SDS011;44436;52.872;6.520;2022-08-21T07:26:17;8.32;;;3.20;;
58665;SDS011;44436;52.872;6.520;2022-08-21T07:28:46;14.60;;;3.47;;
58665;SDS011;44436;52.872;6.520;2022-08-21T07:31:16;13.25;;;3.92;;
58665;SDS011;44436;52.872;6.520;2022-08-21T07:33:43;15.60;;;3.67;;
58665;SDS011;44436;52.872;6.520;2022-08-21T07:36:09;14.18;;;3.80;;
58665;SDS011;44436;52.872;6.520;2022-08-21T07:38:36;15.15;;;3.80;;
58665;SDS011;44436;52.872;6.520;2022-08-21T07:41:02;15.63;;;4.43;;
58665;SDS011;44436;52.872;6.520;2022-08-21T07:43:30;16.63;;;3.92;;
58665;SDS011;44436;52.872;6.520;2022-08-21T07:45:56;17.38;;;4.00;;
58665;SDS011;44436;52.872;6.520;2022-08-21T07:48:22;13.57;;;3.60;;
58665;SDS011;44436;52.872;6.520;2022-08-21T07:50:48;12.20;;;3.78;;
58665;SDS011;44436;52.872;6.520;2022-08-21T07:53:15;15.35;;;3.83;;
58665;SDS011;44436;52.872;6.520;2022-08-21T07:55:41;15.55;;;3.88;;
58665;SDS011;44436;52.872;6.520;2022-08-21T07:58:07;11.95;;;3.50;;
58665;SDS011;44436;52.872;6.520;2022-08-21T08:00:33;11.95;;;3.10;;
58665;SDS011;44436;52.872;6.520;2022-08-21T08:02:59;11.20;;;2.85;;
58665;SDS011;44436;52.872;6.520;2022-08-21T08:05:26;10.73;;;3.58;;
58665;SDS011;44436;52.872;6.520;2022-08-21T08:07:53;12.00;;;3.33;;
58665;SDS011;44436;52.872;6.520;2022-08-21T08:10:19;11.07;;;3.08;;
58665;SDS011;44436;52.872;6.520;2022-08-21T08:12:46;11.70;;;3.70;;
58665;SDS011;44436;52.872;6.520;2022-08-21T08:15:16;9.65;;;2.55;;
58665;SDS011;44436;52.872;6.520;2022-08-21T08:17:44;11.82;;;3.40;;
58665;SDS011;44436;52.872;6.520;2022-08-21T08:20:10;14.30;;;3.08;;
58665;SDS011;44436;52.872;6.520;2022-08-21T08:22:38;13.55;;;3.20;;
58665;SDS011;44436;52.872;6.520;2022-08-21T08:25:05;12.55;;;3.47;;
58665;SDS011;44436;52.872;6.520;2022-08-21T08:27:33;11.00;;;3.30;;
58665;SDS011;44436;52.872;6.520;2022-08-21T08:29:59;13.52;;;3.35;;
58665;SDS011;44436;52.872;6.520;2022-08-21T08:32:24;14.10;;;3.05;;
58665;SDS011;44436;52.872;6.520;2022-08-21T08:34:50;13.98;;;3.60;;
58665;SDS011;44436;52.872;6.520;2022-08-21T08:37:17;19.38;;;3.58;;
58665;SDS011;44436;52.872;6.520;2022-08-21T08:39:44;10.13;;;2.88;;
58665;SDS011;44436;52.872;6.520;2022-08-21T08:42:17;11.65;;;2.67;;
58665;SDS011;44436;52.872;6.520;2022-08-21T08:45:09;10.00;;;2.58;;
58665;SDS011;44436;52.872;6.520;2022-08-21T08:47:45;12.10;;;2.45;;
58665;SDS011;44436;52.872;6.520;2022-08-21T08:52:53;7.28;;;1.90;;
58665;SDS011;44436;52.872;6.520;2022-08-21T08:55:30;11.82;;;2.05;;
58665;SDS011;44436;52.872;6.520;2022-08-21T08:58:02;10.73;;;2.00;;
58665;SDS011;44436;52.872;6.520;2022-08-21T09:00:29;11.52;;;1.90;;
58665;SDS011;44436;52.872;6.520;2022-08-21T09:02:56;8.65;;;1.60;;
58665;SDS011;44436;52.872;6.520;2022-08-21T09:10:34;7.15;;;1.63;;
58665;SDS011;44436;52.872;6.520;2022-08-21T09:13:09;8.90;;;2.00;;
58665;SDS011;44436;52.872;6.520;2022-08-21T09:16:45;9.00;;;2.00;;
58665;SDS011;44436;52.872;6.520;2022-08-21T09:29:37;12.05;;;2.40;;
58665;SDS011;44436;52.872;6.520;2022-08-21T09:32:11;13.45;;;2.67;;
58665;SDS011;44436;52.872;6.520;2022-08-21T09:37:28;5.93;;;1.42;;
58665;SDS011;44436;52.872;6.520;2022-08-21T09:39:55;12.85;;;2.33;;
58665;SDS011;44436;52.872;6.520;2022-08-21T09:42:26;13.00;;;3.05;;
58665;SDS011;44436;52.872;6.520;2022-08-21T09:45:12;12.73;;;2.88;;
58665;SDS011;44436;52.872;6.520;2022-08-21T09:50:21;8.43;;;1.98;;
58665;SDS011;44436;52.872;6.520;2022-08-21T09:52:56;11.85;;;2.80;;
58665;SDS011;44436;52.872;6.520;2022-08-21T09:55:34;10.25;;;1.90;;
58665;SDS011;44436;52.872;6.520;2022-08-21T09:58:31;11.60;;;2.42;;
58665;SDS011;44436;52.872;6.520;2022-08-21T10:00:59;7.32;;;2.33;;
58665;SDS011;44436;52.872;6.520;2022-08-21T10:03:27;13.75;;;2.55;;
58665;SDS011;44436;52.872;6.520;2022-08-21T10:05:57;11.60;;;1.83;;
58665;SDS011;44436;52.872;6.520;2022-08-21T10:08:26;8.63;;;2.05;;
58665;SDS011;44436;52.872;6.520;2022-08-21T10:11:04;10.50;;;2.30;;
58665;SDS011;44436;52.872;6.520;2022-08-21T10:29:38;8.85;;;2.15;;
58665;SDS011;44436;52.872;6.520;2022-08-21T10:34:55;10.80;;;2.15;;
58665;SDS011;44436;52.872;6.520;2022-08-21T10:40:34;9.82;;;2.50;;
58665;SDS011;44436;52.872;6.520;2022-08-21T10:46:42;11.60;;;2.20;;
58665;SDS011;44436;52.872;6.520;2022-08-21T11:00:14;9.38;;;2.13;;
58665;SDS011;44436;52.872;6.520;2022-08-21T11:02:51;13.45;;;2.72;;
58665;SDS011;44436;52.872;6.520;2022-08-21T11:10:53;6.32;;;1.83;;
58665;SDS011;44436;52.872;6.520;2022-08-21T11:16:26;8.30;;;1.83;;
58665;SDS011;44436;52.872;6.520;2022-08-21T11:19:12;7.88;;;2.00;;
58665;SDS011;44436;52.872;6.520;2022-08-21T11:21:44;8.57;;;1.73;;
58665;SDS011;44436;52.872;6.520;2022-08-21T11:24:42;8.00;;;2.20;;
58665;SDS011;44436;52.872;6.520;2022-08-21T11:27:36;10.35;;;1.90;;
58665;SDS011;44436;52.872;6.520;2022-08-21T11:30:21;7.07;;;1.63;;
58665;SDS011;44436;52.872;6.520;2022-08-21T11:43:22;7.18;;;1.90;;
58665;SDS011;44436;52.872;6.520;2022-08-21T11:46:11;4.67;;;1.87;;
58665;SDS011;44436;52.872;6.520;2022-08-21T11:57:40;6.38;;;1.67;;
58665;SDS011;44436;52.872;6.520;2022-08-21T12:00:32;5.78;;;1.85;;
58665;SDS011;44436;52.872;6.520;2022-08-21T12:03:13;9.07;;;2.00;;
58665;SDS011;44436;52.872;6.520;2022-08-21T12:05:54;7.93;;;1.83;;
58665;SDS011;44436;52.872;6.520;2022-08-21T12:08:27;10.35;;;2.60;;
58665;SDS011;44436;52.872;6.520;2022-08-21T12:11:10;12.13;;;2.30;;
58665;SDS011;44436;52.872;6.520;2022-08-21T12:14:00;10.50;;;2.60;;
58665;SDS011;44436;52.872;6.520;2022-08-21T12:16:40;7.93;;;2.00;;
58665;SDS011;44436;52.872;6.520;2022-08-21T12:29:51;11.73;;;2.20;;
58665;SDS011;44436;52.872;6.520;2022-08-21T12:35:10;7.43;;;2.13;;
58665;SDS011;44436;52.872;6.520;2022-08-21T12:38:02;9.50;;;1.98;;
58665;SDS011;44436;52.872;6.520;2022-08-21T12:40:42;11.70;;;2.22;;
58665;SDS011;44436;52.872;6.520;2022-08-21T12:43:40;9.23;;;2.05;;
58665;SDS011;44436;52.872;6.520;2022-08-21T12:46:18;12.02;;;2.28;;
58665;SDS011;44436;52.872;6.520;2022-08-21T12:48:52;9.73;;;2.25;;
58665;SDS011;44436;52.872;6.520;2022-08-21T12:51:22;10.00;;;2.33;;
58665;SDS011;44436;52.872;6.520;2022-08-21T12:53:56;8.00;;;2.15;;
58665;SDS011;44436;52.872;6.520;2022-08-21T12:56:25;5.07;;;1.70;;
58665;SDS011;44436;52.872;6.520;2022-08-21T12:58:56;10.77;;;2.47;;
58665;SDS011;44436;52.872;6.520;2022-08-21T13:04:18;8.43;;;1.88;;
58665;SDS011;44436;52.872;6.520;2022-08-21T13:06:49;9.48;;;2.00;;
58665;SDS011;44436;52.872;6.520;2022-08-21T13:09:17;10.45;;;1.92;;
58665;SDS011;44436;52.872;6.520;2022-08-21T13:11:47;9.30;;;2.22;;
58665;SDS011;44436;52.872;6.520;2022-08-21T13:17:09;11.40;;;1.88;;
58665;SDS011;44436;52.872;6.520;2022-08-21T13:19:36;8.95;;;2.55;;
58665;SDS011;44436;52.872;6.520;2022-08-21T13:22:01;8.20;;;2.33;;
58665;SDS011;44436;52.872;6.520;2022-08-21T13:24:29;7.72;;;2.22;;
58665;SDS011;44436;52.872;6.520;2022-08-21T13:26:59;7.30;;;1.80;;
58665;SDS011;44436;52.872;6.520;2022-08-21T13:29:30;10.38;;;1.83;;
58665;SDS011;44436;52.872;6.520;2022-08-21T13:32:01;7.47;;;2.20;;
58665;SDS011;44436;52.872;6.520;2022-08-21T13:34:30;14.10;;;2.47;;
58665;SDS011;44436;52.872;6.520;2022-08-21T13:37:02;8.18;;;1.77;;
58665;SDS011;44436;52.872;6.520;2022-08-21T13:39:30;9.48;;;2.20;;
58665;SDS011;44436;52.872;6.520;2022-08-21T13:41:58;9.57;;;1.85;;
58665;SDS011;44436;52.872;6.520;2022-08-21T13:44:41;7.25;;;2.10;;
58665;SDS011;44436;52.872;6.520;2022-08-21T13:47:09;13.82;;;2.47;;
58665;SDS011;44436;52.872;6.520;2022-08-21T13:49:43;6.43;;;1.83;;
58665;SDS011;44436;52.872;6.520;2022-08-21T13:52:24;7.55;;;2.00;;
58665;SDS011;44436;52.872;6.520;2022-08-21T13:54:56;7.68;;;2.25;;
58665;SDS011;44436;52.872;6.520;2022-08-21T13:57:29;13.65;;;2.38;;
58665;SDS011;44436;52.872;6.520;2022-08-21T14:02:43;11.63;;;2.10;;
58665;SDS011;44436;52.872;6.520;2022-08-21T14:05:14;8.18;;;1.90;;
58665;SDS011;44436;52.872;6.520;2022-08-21T14:07:50;10.65;;;2.35;;
58665;SDS011;44436;52.872;6.520;2022-08-21T14:10:22;13.65;;;2.30;;
58665;SDS011;44436;52.872;6.520;2022-08-21T14:12:49;8.68;;;2.15;;
58665;SDS011;44436;52.872;6.520;2022-08-21T14:15:25;9.02;;;2.03;;
58665;SDS011;44436;52.872;6.520;2022-08-21T14:17:54;7.53;;;2.35;;
58665;SDS011;44436;52.872;6.520;2022-08-21T14:20:33;10.02;;;2.10;;
58665;SDS011;44436;52.872;6.520;2022-08-21T14:23:00;8.23;;;2.20;;
58665;SDS011;44436;52.872;6.520;2022-08-21T14:30:40;8.82;;;2.33;;
58665;SDS011;44436;52.872;6.520;2022-08-21T14:33:16;6.85;;;2.10;;
58665;SDS011;44436;52.872;6.520;2022-08-21T14:35:54;8.77;;;2.20;;
58665;SDS011;44436;52.872;6.520;2022-08-21T14:38:21;7.53;;;2.13;;
58665;SDS011;44436;52.872;6.520;2022-08-21T14:40:50;5.45;;;1.60;;
58665;SDS011;44436;52.872;6.520;2022-08-21T14:43:18;10.10;;;2.20;;
58665;SDS011;44436;52.872;6.520;2022-08-21T14:45:45;7.90;;;2.10;;
58665;SDS011;44436;52.872;6.520;2022-08-21T14:48:12;14.73;;;2.78;;
58665;SDS011;44436;52.872;6.520;2022-08-21T14:50:38;10.23;;;1.90;;
58665;SDS011;44436;52.872;6.520;2022-08-21T14:53:03;13.25;;;2.88;;
58665;SDS011;44436;52.872;6.520;2022-08-21T14:55:30;6.07;;;1.98;;
58665;SDS011;44436;52.872;6.520;2022-08-21T14:58:16;8.68;;;2.00;;
58665;SDS011;44436;52.872;6.520;2022-08-21T15:00:42;5.63;;;1.77;;
58665;SDS011;44436;52.872;6.520;2022-08-21T15:03:08;7.53;;;1.83;;
58665;SDS011;44436;52.872;6.520;2022-08-21T15:05:33;6.18;;;1.63;;
58665;SDS011;44436;52.872;6.520;2022-08-21T15:07:59;6.13;;;1.80;;
58665;SDS011;44436;52.872;6.520;2022-08-21T15:10:25;8.60;;;1.80;;
58665;SDS011;44436;52.872;6.520;2022-08-21T15:12:50;6.90;;;1.52;;
58665;SDS011;44436;52.872;6.520;2022-08-21T15:15:16;9.00;;;1.80;;
58665;SDS011;44436;52.872;6.520;2022-08-21T15:17:48;9.88;;;2.10;;
58665;SDS011;44436;52.872;6.520;2022-08-21T15:20:13;6.65;;;1.70;;
58665;SDS011;44436;52.872;6.520;2022-08-21T15:22:39;8.35;;;2.53;;
58665;SDS011;44436;52.872;6.520;2022-08-21T15:25:05;5.97;;;1.77;;
58665;SDS011;44436;52.872;6.520;2022-08-21T15:27:31;7.22;;;1.83;;
58665;SDS011;44436;52.872;6.520;2022-08-21T15:29:57;6.80;;;1.63;;
58665;SDS011;44436;52.872;6.520;2022-08-21T15:32:24;11.77;;;1.90;;
58665;SDS011;44436;52.872;6.520;2022-08-21T15:34:52;9.30;;;2.15;;
58665;SDS011;44436;52.872;6.520;2022-08-21T15:37:19;5.05;;;1.50;;
58665;SDS011;44436;52.872;6.520;2022-08-21T15:39:45;6.35;;;1.88;;
58665;SDS011;44436;52.872;6.520;2022-08-21T15:42:10;6.82;;;1.60;;
58665;SDS011;44436;52.872;6.520;2022-08-21T15:44:40;6.90;;;1.70;;
58665;SDS011;44436;52.872;6.520;2022-08-21T15:47:14;7.72;;;1.80;;
58665;SDS011;44436;52.872;6.520;2022-08-21T15:49:42;6.88;;;1.70;;
58665;SDS011;44436;52.872;6.520;2022-08-21T15:52:13;6.60;;;1.65;;
58665;SDS011;44436;52.872;6.520;2022-08-21T15:54:41;4.65;;;1.70;;
58665;SDS011;44436;52.872;6.520;2022-08-21T15:57:08;3.78;;;1.33;;
58665;SDS011;44436;52.872;6.520;2022-08-21T15:59:39;4.85;;;1.58;;
58665;SDS011;44436;52.872;6.520;2022-08-21T16:02:08;11.23;;;1.92;;
58665;SDS011;44436;52.872;6.520;2022-08-21T16:04:39;7.72;;;1.83;;
58665;SDS011;44436;52.872;6.520;2022-08-21T16:07:05;4.65;;;1.48;;
58665;SDS011;44436;52.872;6.520;2022-08-21T16:09:31;4.90;;;1.50;;
58665;SDS011;44436;52.872;6.520;2022-08-21T16:11:58;7.30;;;1.77;;
58665;SDS011;44436;52.872;6.520;2022-08-21T16:14:25;6.00;;;1.35;;
58665;SDS011;44436;52.872;6.520;2022-08-21T16:16:52;5.57;;;1.52;;
58665;SDS011;44436;52.872;6.520;2022-08-21T16:19:18;5.43;;;1.52;;
58665;SDS011;44436;52.872;6.520;2022-08-21T16:21:45;8.00;;;1.40;;
58665;SDS011;44436;52.872;6.520;2022-08-21T16:24:11;6.45;;;1.55;;
58665;SDS011;44436;52.872;6.520;2022-08-21T16:26:37;5.68;;;1.40;;
58665;SDS011;44436;52.872;6.520;2022-08-21T16:29:03;6.90;;;1.90;;
58665;SDS011;44436;52.872;6.520;2022-08-21T16:31:30;13.65;;;2.33;;
58665;SDS011;44436;52.872;6.520;2022-08-21T16:33:57;5.07;;;1.30;;
58665;SDS011;44436;52.872;6.520;2022-08-21T16:36:23;6.05;;;1.50;;
58665;SDS011;44436;52.872;6.520;2022-08-21T16:38:50;5.50;;;1.42;;
58665;SDS011;44436;52.872;6.520;2022-08-21T16:41:18;6.75;;;1.48;;
58665;SDS011;44436;52.872;6.520;2022-08-21T16:43:45;9.13;;;1.67;;
58665;SDS011;44436;52.872;6.520;2022-08-21T16:46:13;11.50;;;1.80;;